Hammondsville, Vermont
Current Conditions -  °F | °C
As of 1:54 PM on Saturday 25 Oct 2014 (Local Time) from KVSF Reporting Station
Clear Clear  
Wind Chill: 60°   Ceiling: Unl
Heat Index: 60°   Visibility: 10mi
Dew Point: 40°   Wind: 8mph
Humidity: 47%   Direction: 300°WNW
Pressure: 29.63"   Gusts: NA
Location:  43.4984°N, 72.5943°W
Report Text: KVSF 251754Z AUTO 30007KT 270V330 10SM CLR 16/04 A2963 RMK AO2 SLP037 T01560044 10161 20006 58033
Loading
Personal Weather Stations






























Interactive Weather Map
Tropical Storm Tracking
New forecast layout! Learn more

10-Day Weather Forecast

Advertisements
Track Severe Weather on mobile